Time;durP1;ratioP1;P1;durP2;ratioP2;P2;SDS_P1;SDS_P2;PMS_P1;PMS_P2;Temp;Humidity;BMP_temperature;BMP_pressure;BME280_temperature;BME280_humidity;BME280_pressure;Samples;Min_cycle;Max_cycle;Signal;HPM_P1;HPM_P2
2023/09/17 00:00:45;;;;;;;;;;;14.00;99.90;;;;;;5093499;28;20052;-64
2023/09/17 00:03:11;;;;;;;0.20;0.20;;;14.10;99.90;;;;;;5093959;28;19920;-63
2023/09/17 00:05:36;;;;;;;0.50;0.50;;;14.10;99.90;;;;;;5094194;28;20036;-64
2023/09/17 00:08:03;;;;;;;0.50;0.50;;;14.30;99.90;;;;;;5094179;28;20046;-64
2023/09/17 00:10:30;;;;;;;0.50;0.50;;;14.30;99.90;;;;;;5094203;28;20052;-63
2023/09/17 00:12:56;;;;;;;0.10;0.10;;;14.00;99.90;;;;;;5094117;28;20054;-63
2023/09/17 00:15:23;;;;;;;;;;;14.20;99.90;;;;;;5094576;28;20036;-63
2023/09/17 00:17:49;;;;;;;0.20;0.20;;;14.50;99.90;;;;;;5094081;28;19920;-63
2023/09/17 00:20:15;;;;;;;0.17;0.17;;;14.30;99.90;;;;;;5093972;28;20278;-63
2023/09/17 00:22:41;;;;;;;;;;;14.40;99.90;;;;;;5094401;28;20044;-63
2023/09/17 00:25:07;;;;;;;0.17;0.17;;;14.60;99.90;;;;;;5093884;28;20454;-63
2023/09/17 00:27:33;;;;;;;0.35;0.35;;;14.50;99.90;;;;;;5094108;28;20052;-64
2023/09/17 00:29:59;;;;;;;0.40;0.40;;;14.80;99.90;;;;;;5094109;28;20036;-63
2023/09/17 00:32:25;;;;;;;0.40;0.40;;;14.70;99.90;;;;;;5093770;28;20051;-63
2023/09/17 00:34:50;;;;;;;;;;;14.40;99.90;;;;;;5094087;28;20060;-64
2023/09/17 00:37:17;;;;;;;0.40;0.40;;;14.20;99.90;;;;;;5093650;28;19919;-64
2023/09/17 00:39:43;;;;;;;0.80;0.80;;;14.60;99.90;;;;;;5093681;28;20052;-64
2023/09/17 00:42:09;;;;;;;0.30;0.30;;;14.30;99.90;;;;;;5093216;28;20124;-63
2023/09/17 00:44:35;;;;;;;;;;;14.20;99.90;;;;;;5093905;28;20497;-63
2023/09/17 00:47:03;;;;;;;0.63;0.63;;;14.50;99.90;;;;;;5093542;28;19923;-64
2023/09/17 00:49:29;;;;;;;0.20;0.20;;;14.30;99.90;;;;;;5093092;28;20854;-64
2023/09/17 00:51:55;;;;;;;;;;;14.30;99.90;;;;;;5093783;28;20055;-64
2023/09/17 00:54:23;;;;;;;0.20;0.20;;;14.30;99.90;;;;;;5093370;28;19920;-64
2023/09/17 00:56:51;;;;;;;0.20;0.20;;;14.30;99.90;;;;;;5093243;28;20055;-64
2023/09/17 00:59:17;;;;;;;0.20;0.20;;;14.20;99.90;;;;;;5093260;28;20059;-64
2023/09/17 01:01:43;;;;;;;;;;;14.30;99.90;;;;;;5093350;28;20457;-63
2023/09/17 01:04:10;;;;;;;0.47;0.47;;;13.90;99.90;;;;;;5093044;28;20014;-64
2023/09/17 01:06:38;;;;;;;0.20;0.20;;;14.30;99.90;;;;;;5093060;28;20043;-64
2023/09/17 01:09:05;;;;;;;0.57;0.52;;;14.30;99.90;;;;;;5093016;28;20095;-63
2023/09/17 01:11:31;;;;;;;0.10;0.10;;;14.00;99.90;;;;;;5092769;28;20085;-63
2023/09/17 01:14:07;;;;;;;0.30;0.30;;;14.00;99.90;;;;;;5092972;28;20048;-64
2023/09/17 01:16:34;;;;;;;0.20;0.20;;;14.20;99.90;;;;;;5092968;28;20044;-63
2023/09/17 01:19:00;;;;;;;0.30;0.30;;;14.00;99.90;;;;;;5092848;28;20087;-64
2023/09/17 01:21:44;;;;;;;0.20;0.20;;;14.20;99.90;;;;;;5092802;28;20087;-64
2023/09/17 01:24:45;;;;;;;0.10;0.10;;;14.00;99.90;;;;;;5092687;28;20052;-63
2023/09/17 01:27:13;;;;;;;0.25;0.25;;;14.40;99.90;;;;;;5092716;28;20126;-64
2023/09/17 01:29:41;;;;;;;0.30;0.30;;;14.40;99.90;;;;;;5092657;28;20052;-64
2023/09/17 01:32:07;;;;;;;0.25;0.25;;;14.30;99.90;;;;;;5092581;28;20055;-63
2023/09/17 01:34:39;;;;;;;0.20;0.20;;;14.00;99.90;;;;;;5092150;28;20105;-63
2023/09/17 01:37:23;;;;;;;0.30;0.30;;;14.00;99.90;;;;;;5092441;28;20048;-64
2023/09/17 01:39:55;;;;;;;0.20;0.20;;;14.40;99.90;;;;;;5092521;28;20040;-64
2023/09/17 01:42:23;;;;;;;0.43;0.35;;;14.00;99.90;;;;;;5092483;28;20059;-64
2023/09/17 01:44:50;;;;;;;0.15;0.15;;;13.80;99.90;;;;;;5092358;28;20071;-63
2023/09/17 01:47:17;;;;;;;0.20;0.20;;;14.10;99.90;;;;;;5092341;28;20056;-64
2023/09/17 01:49:44;;;;;;;0.55;0.35;;;13.90;99.90;;;;;;5092338;28;20044;-63
2023/09/17 01:52:11;;;;;;;0.30;0.30;;;14.30;99.90;;;;;;5092289;28;20056;-64
2023/09/17 01:54:37;;;;;;;0.30;0.30;;;14.10;99.90;;;;;;5092267;28;20439;-63
2023/09/17 01:57:03;;;;;;;0.35;0.35;;;14.10;99.90;;;;;;5092215;28;20058;-64
2023/09/17 01:59:29;;;;;;;0.10;0.10;;;14.60;99.90;;;;;;5092189;28;20044;-64
2023/09/17 02:01:54;;;;;;;;;;;14.50;99.90;;;;;;5092491;28;20083;-64
2023/09/17 02:04:20;;;;;;;0.28;0.28;;;14.70;99.90;;;;;;5091936;28;20594;-64
2023/09/17 02:06:46;;;;;;;;;;;14.60;99.90;;;;;;5092424;28;20054;-64
2023/09/17 02:09:12;;;;;;;0.17;0.17;;;14.50;99.90;;;;;;5092103;28;19963;-64
2023/09/17 02:11:39;;;;;;;0.30;0.30;;;15.00;99.90;;;;;;5092039;28;20052;-64
2023/09/17 02:14:04;;;;;;;;;;;14.90;99.90;;;;;;5092602;28;20048;-64
2023/09/17 02:16:31;;;;;;;0.35;0.35;;;15.30;99.90;;;;;;5092296;28;19926;-64
2023/09/17 02:18:59;;;;;;;0.65;0.43;;;14.90;99.90;;;;;;5092118;28;20048;-64
2023/09/17 02:21:24;;;;;;;0.73;0.73;;;15.00;99.90;;;;;;5091945;28;20101;-64
2023/09/17 02:23:51;;;;;;;0.45;0.45;;;15.40;99.90;;;;;;5091273;28;20047;-64
2023/09/17 02:26:16;;;;;;;0.35;0.35;;;15.40;99.90;;;;;;5092042;28;20044;-64
2023/09/17 02:28:42;;;;;;;0.30;0.30;;;15.20;99.90;;;;;;5091538;28;20476;-64
2023/09/17 02:31:08;;;;;;;;;;;15.20;99.90;;;;;;5091060;28;20044;-64
2023/09/17 02:33:33;;;;;;;0.65;0.65;;;14.90;99.90;;;;;;5092070;28;20287;-64
2023/09/17 02:36:00;;;;;;;;;;;15.20;99.90;;;;;;5092516;28;20056;-64
2023/09/17 02:38:26;;;;;;;0.80;0.67;;;15.30;99.90;;;;;;5091519;28;20257;-64
2023/09/17 02:40:52;;;;;;;;;;;15.40;99.90;;;;;;5091996;28;20289;-64
2023/09/17 02:43:17;;;;;;;0.63;0.63;;;15.50;99.90;;;;;;5091543;28;20446;-64
2023/09/17 02:45:44;;;;;;;1.15;1.05;;;14.90;99.90;;;;;;5091557;28;20516;-63
2023/09/17 02:48:11;;;;;;;0.30;0.30;;;15.00;99.90;;;;;;5091516;28;20400;-64
2023/09/17 02:50:39;;;;;;;0.70;0.70;;;15.50;99.90;;;;;;5091450;28;20048;-64
2023/09/17 02:53:05;;;;;;;1.08;1.00;;;15.50;99.90;;;;;;5091481;28;20142;-64
2023/09/17 02:55:34;;;;;;;0.60;0.60;;;15.80;99.90;;;;;;5091477;28;20479;-64
2023/09/17 02:58:03;;;;;;;2.53;1.33;;;15.50;99.90;;;;;;5091488;28;20109;-64
2023/09/17 03:00:35;;;;;;;0.60;0.60;;;14.70;99.90;;;;;;5091511;28;20459;-64
2023/09/17 03:03:02;;;;;;;0.35;0.32;;;15.50;99.90;;;;;;5091509;28;20396;-64
2023/09/17 03:05:27;;;;;;;0.75;0.73;;;15.30;99.90;;;;;;5091335;28;20782;-64
2023/09/17 03:07:58;;;;;;;0.28;0.28;;;15.30;99.90;;;;;;5091459;28;20107;-64
2023/09/17 03:10:24;;;;;;;0.60;0.60;;;15.00;99.90;;;;;;5091393;28;20055;-64
2023/09/17 03:12:50;;;;;;;;;;;15.70;99.90;;;;;;5091689;28;20097;-64
2023/09/17 03:15:16;;;;;;;0.30;0.22;;;15.30;99.90;;;;;;5091273;28;19920;-64
2023/09/17 03:17:44;;;;;;;;;;;15.30;99.90;;;;;;5091729;28;20056;-64
2023/09/17 03:20:14;;;;;;;0.20;0.20;;;15.50;99.90;;;;;;5091282;28;19924;-64
2023/09/17 03:22:44;;;;;;;0.30;0.30;;;15.40;99.90;;;;;;5089923;28;20043;-64
2023/09/17 03:25:11;;;;;;;0.35;0.35;;;15.40;99.90;;;;;;5091153;28;20040;-64
2023/09/17 03:27:38;;;;;;;0.30;0.30;;;15.40;99.90;;;;;;5091225;28;20047;-64
2023/09/17 03:30:05;;;;;;;0.82;0.70;;;15.50;99.90;;;;;;5090063;28;20139;-64
2023/09/17 03:32:31;;;;;;;0.80;0.80;;;15.50;99.90;;;;;;5091096;28;20040;-64
2023/09/17 03:34:57;;;;;;;1.15;1.02;;;15.60;99.90;;;;;;5091907;28;20048;-64
2023/09/17 03:37:23;;;;;;;;;;;15.10;99.90;;;;;;5095229;28;20060;-65
2023/09/17 03:40:08;;;;;;;0.80;0.80;;;15.70;99.90;;;;;;5095119;28;19927;-64
2023/09/17 03:42:40;;;;;;;1.48;1.23;;;15.20;99.90;;;;;;5094809;28;20043;-64
2023/09/17 03:45:11;;;;;;;2.38;1.30;;;15.10;99.90;;;;;;5094635;28;20052;-63
2023/09/17 03:47:38;;;;;;;0.70;0.70;;;16.10;99.90;;;;;;5094715;28;20059;-64
2023/09/17 03:50:06;;;;;;;1.63;1.15;;;15.40;99.90;;;;;;5094603;28;20052;-64
2023/09/17 03:52:39;;;;;;;2.15;1.13;;;15.80;99.90;;;;;;5094468;28;20052;-64
2023/09/17 03:55:06;;;;;;;0.30;0.30;;;15.80;99.90;;;;;;5094528;28;20506;-64
2023/09/17 03:57:34;;;;;;;0.85;0.82;;;15.80;99.90;;;;;;5094476;28;20430;-64
2023/09/17 03:59:59;;;;;;;1.15;1.05;;;16.00;99.90;;;;;;5094429;28;20044;-64
2023/09/17 04:02:25;;;;;;;;;;;16.30;99.90;;;;;;5094725;28;20519;-64
2023/09/17 04:04:51;;;;;;;1.42;0.68;;;16.00;99.90;;;;;;5093258;28;19924;-64
2023/09/17 04:07:17;;;;;;;;;;;15.90;99.90;;;;;;5094739;28;20131;-64
2023/09/17 04:09:42;;;;;;;0.73;0.70;;;15.80;99.90;;;;;;5094346;28;19924;-63
2023/09/17 04:12:08;;;;;;;;;;;16.30;99.90;;;;;;5094644;28;20048;-64
2023/09/17 04:14:34;;;;;;;0.50;0.50;;;15.80;99.90;;;;;;5094171;28;19924;-64
2023/09/17 04:17:00;;;;;;;;;;;16.10;99.90;;;;;;5094675;28;20044;-64
2023/09/17 04:19:27;;;;;;;0.30;0.30;;;15.50;99.90;;;;;;5094318;28;19924;-64
2023/09/17 04:21:53;;;;;;;0.95;0.95;;;16.20;99.90;;;;;;5094042;28;20134;-65
2023/09/17 04:24:18;;;;;;;;;;;15.50;99.90;;;;;;5094306;28;20131;-63
2023/09/17 04:26:45;;;;;;;0.80;0.80;;;16.10;99.90;;;;;;5093878;28;20038;-63
2023/09/17 04:29:12;;;;;;;0.98;0.90;;;16.20;99.90;;;;;;5093826;28;20040;-63
2023/09/17 04:31:38;;;;;;;0.65;0.65;;;15.60;99.90;;;;;;5093836;28;20159;-64
2023/09/17 04:34:04;;;;;;;0.68;0.60;;;15.80;99.90;;;;;;5093732;28;20519;-64
2023/09/17 04:36:29;;;;;;;;;;;15.80;99.90;;;;;;5094127;28;20052;-63
2023/09/17 04:38:55;;;;;;;0.32;0.32;;;15.50;99.90;;;;;;5093639;28;19920;-64
2023/09/17 04:41:21;;;;;;;;;;;16.10;99.90;;;;;;5094033;28;20545;-64
2023/09/17 04:43:46;;;;;;;0.35;0.35;;;15.80;99.90;;;;;;5093489;28;19924;-64
2023/09/17 04:46:12;;;;;;;;;;;16.10;99.90;;;;;;5091914;28;20079;-64
2023/09/17 04:48:38;;;;;;;0.50;0.50;;;15.90;99.90;;;;;;5093129;28;19985;-64
2023/09/17 04:51:07;;;;;;;0.90;0.63;;;15.50;99.90;;;;;;5093381;28;20055;-64
2023/09/17 04:53:33;;;;;;;0.65;0.65;;;15.50;99.90;;;;;;5093301;28;20051;-64
2023/09/17 04:55:59;;;;;;;;;;;15.90;99.90;;;;;;5093665;28;20036;-64
2023/09/17 04:58:25;;;;;;;0.57;0.57;;;16.00;99.90;;;;;;5093251;28;20019;-64
2023/09/17 05:00:53;;;;;;;;;;;16.30;99.90;;;;;;5093672;28;20044;-64
2023/09/17 05:03:19;;;;;;;0.90;0.73;;;15.40;99.90;;;;;;5093198;28;19931;-64
2023/09/17 05:05:46;;;;;;;;;;;16.00;99.90;;;;;;5093481;28;20044;-64
2023/09/17 05:08:13;;;;;;;;;;;15.50;99.90;;;;;;5093531;28;19920;-64
2023/09/17 05:10:39;;;;;;;3.10;1.73;;;15.80;99.90;;;;;;5093016;28;19924;-64
2023/09/17 05:13:05;;;;;;;;;;;15.70;99.90;;;;;;5093691;28;20052;-64
2023/09/17 05:15:31;;;;;;;0.93;0.63;;;16.20;99.90;;;;;;5093001;28;19924;-64
2023/09/17 05:17:57;;;;;;;;;;;15.60;99.90;;;;;;5093626;28;20055;-64
2023/09/17 05:20:23;;;;;;;1.00;0.50;;;15.90;99.90;;;;;;5093141;28;19931;-64
2023/09/17 05:22:49;;;;;;;0.82;0.82;;;15.70;99.90;;;;;;5092745;28;20140;-64
2023/09/17 05:25:14;;;;;;;;;;;15.80;99.90;;;;;;5093082;28;20097;-64
2023/09/17 05:27:40;;;;;;;1.42;1.20;;;16.20;99.90;;;;;;5092742;28;19955;-64
2023/09/17 05:30:06;;;;;;;;;;;16.20;99.90;;;;;;5093124;28;20887;-64
2023/09/17 05:32:32;;;;;;;0.45;0.45;;;15.80;99.90;;;;;;5092661;28;19992;-64
2023/09/17 05:35:03;;;;;;;;;;;15.90;99.90;;;;;;5092564;28;20079;-63
2023/09/17 05:37:29;;;;;;;0.40;0.40;;;16.30;99.90;;;;;;5092715;28;19924;-64
2023/09/17 05:39:55;;;;;;;0.70;0.70;;;16.60;99.90;;;;;;5092617;28;20380;-64
2023/09/17 05:42:21;;;;;;;;;;;16.00;99.90;;;;;;5092936;28;20094;-64
2023/09/17 05:44:46;;;;;;;0.90;0.90;;;15.90;99.90;;;;;;5092175;28;19927;-64
2023/09/17 05:47:12;;;;;;;;;;;16.10;99.90;;;;;;5092831;28;20055;-64
2023/09/17 05:49:38;;;;;;;0.77;0.77;;;16.00;99.90;;;;;;5092851;28;19943;-64
2023/09/17 05:52:04;;;;;;;;;;;16.70;99.90;;;;;;5093105;28;20435;-64
2023/09/17 05:54:29;;;;;;;1.00;0.93;;;16.40;99.90;;;;;;5092543;28;20330;-64
2023/09/17 05:56:55;;;;;;;;;;;16.10;99.90;;;;;;5092324;28;20044;-64
2023/09/17 05:59:21;;;;;;;1.65;0.98;;;16.30;99.90;;;;;;5088853;28;20337;-64
2023/09/17 06:01:47;;;;;;;3.00;1.38;;;15.90;99.90;;;;;;5100269;28;20071;-64
2023/09/17 06:04:12;;;;;;;;;;;16.50;99.90;;;;;;5112423;28;20472;-64
2023/09/17 06:06:38;;;;;;;1.67;1.38;;;16.30;99.90;;;;;;5111937;28;20462;-64
2023/09/17 06:09:04;;;;;;;;;;;16.50;99.90;;;;;;5112612;28;20044;-63
2023/09/17 06:11:30;;;;;;;1.38;1.25;;;16.80;99.90;;;;;;5112134;28;20446;-64
2023/09/17 06:13:55;;;;;;;1.48;1.38;;;16.60;99.90;;;;;;5112321;28;20044;-64
2023/09/17 06:16:21;;;;;;;;;;;16.70;99.90;;;;;;5111989;28;20044;-63
2023/09/17 06:18:47;;;;;;;1.77;1.33;;;16.90;99.90;;;;;;5111875;28;19927;-64
2023/09/17 06:21:12;;;;;;;;;;;16.70;99.90;;;;;;5112397;28;20552;-63
2023/09/17 06:23:38;;;;;;;1.70;1.50;;;16.70;99.90;;;;;;5111775;28;19927;-63
2023/09/17 06:26:07;;;;;;;;;;;16.70;99.90;;;;;;5112010;28;20053;-63
2023/09/17 06:28:33;;;;;;;1.63;1.52;;;16.60;99.90;;;;;;5111847;28;20430;-63
2023/09/17 06:30:59;;;;;;;1.75;1.58;;;16.70;99.90;;;;;;5111572;28;20126;-63
2023/09/17 06:33:25;;;;;;;4.15;1.35;;;17.00;99.90;;;;;;5111702;28;20100;-63
2023/09/17 06:35:50;;;;;;;1.60;1.50;;;17.20;99.90;;;;;;5111166;28;20059;-63
2023/09/17 06:38:16;;;;;;;1.42;1.33;;;16.70;99.90;;;;;;5111674;28;20059;-64
2023/09/17 06:40:42;;;;;;;;;;;17.00;99.90;;;;;;5111795;28;20092;-63
2023/09/17 06:43:07;;;;;;;2.67;1.80;;;17.30;99.90;;;;;;5093528;28;19926;-64
2023/09/17 06:45:33;;;;;;;1.38;1.20;;;17.10;99.90;;;;;;5111625;28;20059;-63
2023/09/17 06:47:59;;;;;;;;;;;17.30;99.90;;;;;;5111951;28;20162;-63
2023/09/17 06:50:24;;;;;;;1.42;1.30;;;17.40;99.90;;;;;;5111762;28;20413;-64
2023/09/17 06:52:50;;;;;;;2.10;1.70;;;17.50;99.90;;;;;;5112217;28;20083;-64
2023/09/17 06:55:16;;;;;;;;;;;17.20;99.90;;;;;;5112292;28;20470;-64
2023/09/17 06:57:41;;;;;;;2.15;1.67;;;17.30;99.90;;;;;;5111383;28;19923;-64
2023/09/17 07:00:07;;;;;;;2.50;2.30;;;17.50;99.90;;;;;;5110512;28;20048;-63
2023/09/17 07:02:33;;;;;;;1.20;0.90;;;17.40;99.90;;;;;;5111453;28;20043;-63
2023/09/17 07:05:01;;;;;;;1.45;1.08;;;17.10;99.90;;;;;;5111170;28;20042;-64
2023/09/17 07:07:26;;;;;;;1.45;1.15;;;17.30;99.90;;;;;;5111475;28;20051;-64
2023/09/17 07:09:52;;;;;;;1.92;1.75;;;17.40;99.90;;;;;;5112547;28;20050;-64
2023/09/17 07:12:18;;;;;;;;;;;17.30;99.90;;;;;;5115824;28;20048;-64
2023/09/17 07:14:44;;;;;;;0.85;0.85;;;17.10;99.90;;;;;;5097212;28;20015;-64
2023/09/17 07:17:10;;;;;;;;;;;17.50;99.90;;;;;;5115748;28;20055;-64
2023/09/17 07:19:35;;;;;;;2.25;1.33;;;17.70;99.90;;;;;;5115118;28;19977;-64
2023/09/17 07:22:01;;;;;;;1.98;1.58;;;17.50;99.90;;;;;;5115034;28;20100;-64
2023/09/17 07:24:27;;;;;;;4.03;1.70;;;17.40;99.90;;;;;;5115102;28;20051;-64
2023/09/17 07:26:52;;;;;;;2.03;1.10;;;17.70;99.90;;;;;;5115354;28;20059;-63
2023/09/17 07:29:18;;;;;;;1.20;1.13;;;17.70;99.90;;;;;;5115092;28;20138;-63
2023/09/17 07:31:47;;;;;;;2.72;1.58;;;17.60;99.90;;;;;;5114820;28;20044;-62
2023/09/17 07:34:13;;;;;;;1.33;1.23;;;17.80;99.90;;;;;;5114895;28;20489;-64
2023/09/17 07:36:39;;;;;;;0.90;0.80;;;17.70;99.90;;;;;;5114428;28;20063;-63
2023/09/17 07:39:05;;;;;;;10.50;1.20;;;17.80;99.90;;;;;;5114972;28;20054;-63
2023/09/17 07:41:31;;;;;;;1.75;1.45;;;17.80;99.90;;;;;;5096263;28;20055;-64
2023/09/17 07:43:57;;;;;;;1.08;0.70;;;18.40;99.90;;;;;;5102957;28;20044;-64
2023/09/17 07:46:23;;;;;;;1.45;1.25;;;17.70;99.90;;;;;;5094155;28;20048;-64
2023/09/17 07:48:49;;;;;;;1.52;1.42;;;18.00;99.90;;;;;;5092853;28;20048;-63
2023/09/17 07:51:16;;;;;;;1.42;1.33;;;18.10;99.90;;;;;;5094097;28;20048;-64
2023/09/17 07:53:41;;;;;;;1.40;1.30;;;18.10;99.90;;;;;;5094136;28;20183;-62
2023/09/17 07:56:07;;;;;;;1.63;1.52;;;18.30;99.90;;;;;;5094062;28;20154;-63
2023/09/17 07:58:33;;;;;;;1.75;1.25;;;18.20;99.90;;;;;;5093666;28;20048;-63
2023/09/17 08:00:59;;;;;;;4.60;1.55;;;18.30;99.90;;;;;;5094157;28;20506;-64
2023/09/17 08:03:24;;;;;;;1.67;1.40;;;18.10;99.90;;;;;;5094020;28;20054;-64
2023/09/17 08:05:50;;;;;;;0.88;0.88;;;18.50;99.90;;;;;;5094151;28;20104;-64
2023/09/17 08:08:16;;;;;;;1.40;1.25;;;18.60;99.90;;;;;;5094056;28;20039;-64
2023/09/17 08:10:42;;;;;;;1.45;1.25;;;18.60;99.90;;;;;;5093674;28;20055;-64
2023/09/17 08:13:08;;;;;;;1.58;1.20;;;18.40;99.90;;;;;;5092573;28;20120;-63
2023/09/17 08:15:34;;;;;;;2.03;1.90;;;18.40;99.90;;;;;;5093661;28;20154;-63
2023/09/17 08:18:01;;;;;;;1.20;0.98;;;18.60;99.90;;;;;;5093797;28;20130;-62
2023/09/17 08:20:26;;;;;;;3.75;1.25;;;18.50;99.90;;;;;;5092117;28;20048;-63
2023/09/17 08:22:52;;;;;;;0.45;0.45;;;18.20;99.90;;;;;;5092697;28;20260;-63
2023/09/17 08:25:19;;;;;;;1.70;0.90;;;18.40;99.90;;;;;;5096074;28;20114;-64
2023/09/17 08:27:46;;;;;;;1.20;1.00;;;18.20;99.90;;;;;;5092112;28;20052;-63
2023/09/17 08:30:13;;;;;;;1.08;0.85;;;18.70;99.90;;;;;;5093423;28;20048;-62
2023/09/17 08:32:44;;;;;;;5.70;1.23;;;18.70;99.90;;;;;;5093475;28;20059;-63
2023/09/17 08:35:14;;;;;;;1.40;1.30;;;18.70;99.90;;;;;;5092986;28;20135;-64
2023/09/17 08:37:42;;;;;;;6.75;1.92;;;18.40;99.90;;;;;;5093424;28;20052;-65
2023/09/17 08:40:13;;;;;;;2.35;1.88;;;19.00;99.90;;;;;;5093167;28;20052;-64
2023/09/17 08:42:41;;;;;;;4.15;1.92;;;18.40;99.90;;;;;;5093262;28;20126;-64
2023/09/17 08:45:09;;;;;;;1.77;1.35;;;18.80;99.90;;;;;;5093039;28;20055;-64
2023/09/17 08:47:37;;;;;;;0.98;0.82;;;18.60;99.90;;;;;;5092334;28;20040;-65
2023/09/17 08:50:04;;;;;;;1.45;1.35;;;18.60;99.90;;;;;;5068495;28;20403;-64
2023/09/17 08:52:33;;;;;;;1.05;0.95;;;18.40;99.90;;;;;;5092603;28;20048;-64
2023/09/17 08:55:01;;;;;;;1.60;1.50;;;18.30;99.90;;;;;;5098046;28;20448;-62
2023/09/17 08:57:30;;;;;;;1.83;1.05;;;18.60;99.90;;;;;;5098890;28;20052;-65
2023/09/17 09:00:10;;;;;;;1.88;1.70;;;18.40;99.90;;;;;;5101442;28;20048;-61
2023/09/17 09:02:45;;;;;;;0.77;0.77;;;18.60;99.90;;;;;;5101748;28;20056;-62
2023/09/17 09:05:14;;;;;;;0.77;0.77;;;18.50;99.90;;;;;;5113337;28;20044;-62
2023/09/17 09:07:43;;;;;;;2.08;1.67;;;18.30;99.90;;;;;;5086287;28;20048;-62
2023/09/17 09:10:11;;;;;;;1.23;1.02;;;18.60;99.90;;;;;;5093101;28;20108;-61
2023/09/17 09:12:38;;;;;;;5.70;1.48;;;18.20;99.90;;;;;;5074577;28;20079;-62
2023/09/17 09:15:05;;;;;;;1.58;1.48;;;18.30;99.90;;;;;;5092897;28;20054;-62
2023/09/17 09:17:31;;;;;;;1.05;0.93;;;18.20;99.90;;;;;;5092192;28;20508;-64
2023/09/17 09:19:57;;;;;;;1.80;1.10;;;18.40;99.90;;;;;;5092868;28;20052;-63
2023/09/17 09:22:25;;;;;;;1.85;1.05;;;18.30;99.90;;;;;;5074690;28;20093;-64
2023/09/17 09:24:51;;;;;;;0.60;0.60;;;18.40;99.90;;;;;;5092989;28;20044;-64
2023/09/17 09:27:16;;;;;;;1.65;1.27;;;18.80;99.90;;;;;;5092468;28;20054;-64
2023/09/17 09:29:43;;;;;;;1.88;1.38;;;18.80;99.90;;;;;;5092674;28;20161;-63
2023/09/17 09:32:12;;;;;;;2.30;1.42;;;18.40;99.90;;;;;;5090874;28;20048;-63
2023/09/17 09:34:42;;;;;;;0.60;0.60;;;18.40;99.90;;;;;;5092243;28;20392;-64
2023/09/17 09:37:08;;;;;;;1.10;1.10;;;18.50;99.90;;;;;;5091653;28;20076;-63
2023/09/17 09:39:35;;;;;;;1.20;1.10;;;18.20;99.90;;;;;;5091594;28;20491;-64
2023/09/17 09:42:05;;;;;;;0.80;0.75;;;18.50;99.90;;;;;;5092228;28;20127;-64
2023/09/17 09:44:31;;;;;;;0.70;0.52;;;18.40;99.90;;;;;;5106724;28;20415;-64
2023/09/17 09:46:59;;;;;;;1.20;1.00;;;18.30;99.90;;;;;;5112440;28;20043;-64
2023/09/17 09:49:25;;;;;;;0.93;0.73;;;18.50;99.90;;;;;;5111889;28;20487;-65
2023/09/17 09:51:51;;;;;;;1.40;0.93;;;18.50;99.90;;;;;;5112163;28;20043;-62
2023/09/17 09:54:17;;;;;;;1.15;1.05;;;19.10;99.90;;;;;;5112059;28;20059;-64
2023/09/17 09:56:47;;;;;;;1.17;1.17;;;19.40;99.90;;;;;;5112210;28;20108;-64
2023/09/17 09:59:16;;;;;;;0.98;0.90;;;18.70;99.90;;;;;;5112080;28;20054;-65
2023/09/17 10:01:42;;;;;;;0.70;0.70;;;18.90;99.90;;;;;;5112554;28;20039;-64
2023/09/17 10:04:09;;;;;;;1.90;1.63;;;19.00;99.90;;;;;;5112170;28;20558;-64
2023/09/17 10:06:37;;;;;;;1.20;1.00;;;18.90;99.90;;;;;;5112226;28;20131;-64
2023/09/17 10:09:03;;;;;;;3.03;1.42;;;18.40;99.90;;;;;;5111927;28;20137;-64
2023/09/17 10:11:30;;;;;;;2.13;1.60;;;18.60;99.90;;;;;;5111914;28;20130;-64
2023/09/17 10:14:06;;;;;;;1.02;0.80;;;18.30;99.90;;;;;;5112030;28;20413;-64
2023/09/17 10:16:36;;;;;;;0.47;0.47;;;18.30;99.90;;;;;;5111815;28;20035;-64
2023/09/17 10:19:06;;;;;;;1.10;0.85;;;18.10;99.90;;;;;;5112105;28;20395;-64
2023/09/17 10:21:38;;;;;;;0.55;0.55;;;18.10;99.90;;;;;;5111706;28;20104;-64
2023/09/17 10:24:05;;;;;;;0.65;0.65;;;17.70;99.90;;;;;;5111739;28;20053;-64
2023/09/17 10:26:34;;;;;;;0.60;0.60;;;17.90;99.90;;;;;;5111689;28;20122;-65
2023/09/17 10:29:02;;;;;;;1.45;1.35;;;17.90;99.90;;;;;;5111601;28;20047;-64
2023/09/17 10:31:29;;;;;;;1.95;0.90;;;17.70;99.90;;;;;;5112053;28;20055;-64
2023/09/17 10:33:56;;;;;;;1.00;0.85;;;17.60;99.90;;;;;;5111534;28;20051;-64
2023/09/17 10:36:24;;;;;;;0.50;0.50;;;17.80;99.90;;;;;;5111031;28;20055;-64
2023/09/17 10:38:52;;;;;;;0.20;0.20;;;17.50;99.90;;;;;;5111183;28;20083;-64
2023/09/17 10:41:21;;;;;;;0.60;0.60;;;17.70;99.90;;;;;;5111898;28;20086;-64
2023/09/17 10:43:48;;;;;;;0.75;0.75;;;18.00;99.90;;;;;;5111680;28;20079;-64
2023/09/17 10:46:15;;;;;;;1.35;0.50;;;18.30;99.90;;;;;;5115144;28;20100;-64
2023/09/17 10:48:42;;;;;;;0.90;0.88;;;17.60;99.90;;;;;;5115724;28;20054;-64
2023/09/17 10:51:08;;;;;;;1.05;0.95;;;18.10;99.90;;;;;;5115632;28;20575;-64
2023/09/17 10:53:34;;;;;;;0.80;0.80;;;18.20;99.90;;;;;;5097606;28;20047;-64
2023/09/17 10:56:06;;;;;;;1.95;0.65;;;18.00;99.90;;;;;;5115584;28;20208;-64
2023/09/17 10:58:39;;;;;;;0.60;0.60;;;18.20;99.90;;;;;;5115597;28;20130;-64
2023/09/17 11:01:07;;;;;;;1.25;1.10;;;18.20;99.90;;;;;;5109301;28;20373;-64
2023/09/17 11:03:35;;;;;;;0.90;0.82;;;18.40;99.90;;;;;;5094683;28;20048;-64
2023/09/17 11:06:03;;;;;;;1.42;0.57;;;18.10;99.90;;;;;;5105964;28;20100;-63
2023/09/17 11:08:29;;;;;;;1.13;1.02;;;18.50;99.90;;;;;;5104714;28;20341;-64
2023/09/17 11:10:55;;;;;;;1.38;1.20;;;18.20;99.90;;;;;;5104158;28;20050;-64
2023/09/17 11:13:21;;;;;;;0.77;0.77;;;18.10;99.90;;;;;;5105700;28;20247;-64
2023/09/17 11:15:50;;;;;;;0.95;0.70;;;18.20;99.90;;;;;;5095281;28;20046;-64
2023/09/17 11:18:17;;;;;;;1.30;1.05;;;18.40;99.90;;;;;;5094956;28;20071;-64
2023/09/17 11:21:00;;;;;;;1.98;0.98;;;18.60;99.90;;;;;;5094742;28;20098;-63
2023/09/17 11:23:47;;;;;;;1.13;1.02;;;18.30;99.90;;;;;;5093699;28;20044;-63
2023/09/17 11:26:24;;;;;;;1.00;1.00;;;18.20;99.90;;;;;;5094610;28;20051;-65
2023/09/17 11:28:57;;;;;;;0.57;0.57;;;18.20;99.90;;;;;;5094810;28;20067;-64
2023/09/17 11:31:26;;;;;;;0.95;0.95;;;18.30;99.90;;;;;;5094569;28;20044;-64
2023/09/17 11:33:52;;;;;;;1.50;1.30;;;18.30;99.90;;;;;;5094224;28;20047;-63
2023/09/17 11:36:19;;;;;;;0.50;0.50;;;18.50;99.90;;;;;;5094125;28;20066;-63
2023/09/17 11:38:48;;;;;;;0.85;0.75;;;18.30;99.90;;;;;;5091060;28;20083;-63
2023/09/17 11:41:16;;;;;;;0.50;0.50;;;18.10;99.90;;;;;;5087081;28;20051;-63
2023/09/17 11:43:50;;;;;;;1.25;0.85;;;18.30;99.90;;;;;;5093962;28;20048;-62
2023/09/17 11:46:16;;;;;;;0.75;0.75;;;17.70;99.90;;;;;;5096215;28;20039;-64
2023/09/17 11:48:43;;;;;;;1.38;1.30;;;18.40;99.90;;;;;;5098587;28;20051;-64
2023/09/17 11:51:31;;;;;;;1.98;1.23;;;18.50;99.90;;;;;;5093698;28;20093;-63
2023/09/17 11:54:02;;;;;;;1.38;1.13;;;18.00;99.90;;;;;;5093468;28;20059;-63
2023/09/17 11:56:33;;;;;;;2.60;1.23;;;18.80;99.90;;;;;;5093356;28;20139;-62
2023/09/17 11:59:08;;;;;;;0.77;0.77;;;18.50;99.90;;;;;;5093888;28;20127;-64
2023/09/17 12:01:47;;;;;;;0.55;0.55;;;18.50;99.90;;;;;;5093960;28;20099;-64
2023/09/17 12:04:13;;;;;;;0.95;0.75;;;18.60;99.90;;;;;;5093243;28;20464;-64
2023/09/17 12:06:50;;;;;;;1.30;0.93;;;18.20;99.90;;;;;;5093884;28;20087;-64
2023/09/17 12:09:48;;;;;;;1.77;1.35;;;18.70;99.90;;;;;;5092801;28;20484;-63
2023/09/17 12:12:20;;;;;;;1.23;0.98;;;18.80;99.90;;;;;;5093011;28;20052;-64
2023/09/17 12:14:49;;;;;;;1.80;1.65;;;18.50;99.90;;;;;;5093424;28;20084;-64
2023/09/17 12:17:18;;;;;;;0.88;0.82;;;18.50;99.90;;;;;;5092982;28;20052;-66
2023/09/17 12:19:46;;;;;;;0.77;0.77;;;18.50;99.90;;;;;;5090266;28;20052;-65
2023/09/17 12:22:11;;;;;;;0.50;0.50;;;18.90;99.90;;;;;;5093293;28;20051;-64
2023/09/17 12:24:44;;;;;;;0.50;0.50;;;18.70;99.90;;;;;;5092643;28;20048;-65
2023/09/17 12:27:34;;;;;;;1.08;0.70;;;18.70;99.90;;;;;;5092952;28;20048;-64
2023/09/17 12:30:02;;;;;;;0.50;0.50;;;18.90;99.90;;;;;;5093241;28;20074;-64
2023/09/17 12:32:33;;;;;;;0.75;0.75;;;18.70;99.90;;;;;;5093181;28;20125;-64
2023/09/17 12:34:59;;;;;;;1.27;1.10;;;18.80;99.90;;;;;;5092505;28;20157;-64
2023/09/17 12:37:25;;;;;;;2.33;1.50;;;18.50;99.90;;;;;;5093492;28;20448;-64
2023/09/17 12:39:52;;;;;;;1.10;1.02;;;18.70;99.90;;;;;;5092031;28;20047;-63
2023/09/17 12:42:20;;;;;;;0.90;0.90;;;18.40;99.90;;;;;;5089181;28;20066;-64
2023/09/17 12:44:46;;;;;;;0.32;0.32;;;18.50;99.90;;;;;;5092447;28;20058;-63
2023/09/17 12:47:13;;;;;;;0.65;0.57;;;18.60;99.90;;;;;;5095709;28;20048;-64
2023/09/17 12:49:41;;;;;;;0.52;0.52;;;18.60;99.90;;;;;;5093237;28;20113;-63
2023/09/17 12:52:07;;;;;;;0.32;0.32;;;18.40;99.90;;;;;;5093182;28;20113;-63
2023/09/17 12:54:33;;;;;;;0.25;0.25;;;18.60;99.90;;;;;;5093060;28;20083;-63
2023/09/17 12:56:59;;;;;;;0.63;0.63;;;18.60;99.90;;;;;;5093022;28;20079;-64
2023/09/17 12:59:34;;;;;;;0.98;0.98;;;18.60;99.90;;;;;;5093007;28;20119;-64